Time;durP1;ratioP1;P1;durP2;ratioP2;P2;SDS_P1;SDS_P2;PMS_P1;PMS_P2;Temp;Humidity;BMP_temperature;BMP_pressure;BME280_temperature;BME280_humidity;BME280_pressure;Samples;Min_cycle;Max_cycle;Signal;HPM_P1;HPM_P2
2022/04/23 00:00:09;;;;;;;20.30;8.80;;;8.30;76.50;;;;;;4953916;28;20047;-71
2022/04/23 00:02:42;;;;;;;18.10;8.70;;;8.30;76.40;;;;;;4937220;28;20397;-72
2022/04/23 00:05:10;;;;;;;16.08;8.52;;;8.30;76.50;;;;;;4956723;28;20059;-72
2022/04/23 00:07:38;;;;;;;18.23;8.43;;;8.30;76.80;;;;;;4957801;28;20050;-72
2022/04/23 00:10:06;;;;;;;17.17;8.00;;;8.30;76.90;;;;;;4940459;29;20054;-72
2022/04/23 00:12:34;;;;;;;16.70;8.80;;;8.30;77.10;;;;;;4940329;29;20062;-72
2022/04/23 00:15:01;;;;;;;22.30;9.15;;;8.30;77.40;;;;;;4956729;29;20047;-72
2022/04/23 00:17:29;;;;;;;16.92;9.00;;;8.20;77.30;;;;;;4957614;29;20051;-72
2022/04/23 00:19:56;;;;;;;21.08;9.68;;;8.20;77.60;;;;;;4940342;28;20074;-72
2022/04/23 00:22:25;;;;;;;20.67;9.57;;;8.20;77.90;;;;;;4940410;29;20048;-71
2022/04/23 00:24:53;;;;;;;23.02;9.20;;;8.00;78.20;;;;;;4957413;28;20058;-72
2022/04/23 00:27:20;;;;;;;21.67;9.07;;;8.00;78.40;;;;;;4940291;29;20401;-71
2022/04/23 00:29:48;;;;;;;19.40;9.65;;;7.90;78.50;;;;;;4957498;29;20425;-71
2022/04/23 00:32:16;;;;;;;23.48;9.40;;;7.90;78.70;;;;;;4956630;28;20059;-72
2022/04/23 00:34:43;;;;;;;18.05;9.07;;;7.80;79.00;;;;;;4957459;28;20048;-71
2022/04/23 00:37:11;;;;;;;20.98;10.40;;;7.80;79.40;;;;;;4957294;28;20051;-71
2022/04/23 00:39:39;;;;;;;19.45;9.68;;;7.80;79.40;;;;;;4957189;29;20055;-71
2022/04/23 00:42:09;;;;;;;17.42;9.13;;;7.80;79.70;;;;;;4957276;29;20055;-71
2022/04/23 00:44:38;;;;;;;19.42;9.98;;;7.80;80.20;;;;;;4939860;29;20055;-71
2022/04/23 00:47:08;;;;;;;24.10;10.57;;;7.80;80.40;;;;;;4940441;29;20386;-71
2022/04/23 00:49:37;;;;;;;21.00;10.55;;;7.80;80.40;;;;;;4957404;28;20059;-71
2022/04/23 00:52:05;;;;;;;20.17;10.13;;;7.70;80.50;;;;;;4956564;28;20062;-71
2022/04/23 00:54:34;;;;;;;24.88;10.60;;;7.70;80.60;;;;;;4940342;29;20055;-71
2022/04/23 00:57:04;;;;;;;26.58;10.63;;;7.70;80.80;;;;;;4957196;28;20560;-72
2022/04/23 00:59:33;;;;;;;22.98;10.77;;;7.70;81.00;;;;;;4956451;28;20520;-71
2022/04/23 01:02:03;;;;;;;25.67;11.07;;;7.70;81.10;;;;;;4924026;29;20501;-71
2022/04/23 01:04:31;;;;;;;25.17;11.45;;;7.70;81.10;;;;;;4957281;28;20051;-71
2022/04/23 01:06:59;;;;;;;28.15;10.55;;;7.70;81.10;;;;;;4957016;28;20055;-71
2022/04/23 01:09:27;;;;;;;24.05;11.10;;;7.70;81.10;;;;;;4956907;29;20058;-71
2022/04/23 01:11:58;;;;;;;26.55;11.10;;;7.60;81.20;;;;;;4939873;29;20054;-71
2022/04/23 01:14:26;;;;;;;24.00;11.43;;;7.60;81.20;;;;;;4938775;28;20062;-71
2022/04/23 01:16:54;;;;;;;22.85;11.60;;;7.70;81.20;;;;;;4939797;29;20488;-71
2022/04/23 01:19:22;;;;;;;21.30;11.48;;;7.70;81.20;;;;;;4955893;29;20516;-71
2022/04/23 01:21:49;;;;;;;20.30;10.65;;;7.70;81.60;;;;;;4939485;29;20062;-71
2022/04/23 01:24:18;;;;;;;24.20;9.98;;;7.70;81.70;;;;;;4956524;28;20501;-71
2022/04/23 01:26:46;;;;;;;25.33;10.60;;;7.80;81.90;;;;;;4939304;29;20062;-71
2022/04/23 01:29:13;;;;;;;20.42;10.45;;;7.80;81.90;;;;;;4944003;29;20058;-71
2022/04/23 01:31:41;;;;;;;23.92;10.50;;;7.90;81.80;;;;;;4937304;29;20394;-72
2022/04/23 01:34:09;;;;;;;20.98;10.60;;;8.00;81.70;;;;;;4937237;29;20429;-71
2022/04/23 01:36:37;;;;;;;28.55;10.63;;;8.10;81.70;;;;;;4920003;29;20047;-71
2022/04/23 01:39:04;;;;;;;19.52;9.25;;;8.20;81.50;;;;;;4937065;29;20051;-71
2022/04/23 01:41:32;;;;;;;24.65;11.20;;;8.20;81.40;;;;;;4936480;29;20406;-72
2022/04/23 01:43:59;;;;;;;20.90;10.70;;;8.30;81.20;;;;;;4920027;29;20052;-71
2022/04/23 01:46:27;;;;;;;21.08;10.70;;;8.30;81.10;;;;;;4937004;29;20406;-71
2022/04/23 01:48:54;;;;;;;22.38;10.45;;;8.30;81.10;;;;;;4919860;29;20414;-71
2022/04/23 01:51:22;;;;;;;20.48;10.68;;;8.40;81.10;;;;;;4919401;29;20074;-71
2022/04/23 01:53:49;;;;;;;25.38;10.70;;;8.40;80.90;;;;;;4936780;29;20062;-71
2022/04/23 01:56:17;;;;;;;21.98;10.27;;;8.40;80.80;;;;;;4936710;29;20051;-72
2022/04/23 01:58:45;;;;;;;24.35;10.35;;;8.30;80.90;;;;;;4919766;29;20074;-72
2022/04/23 02:01:13;;;;;;;25.98;10.40;;;8.30;81.00;;;;;;4936568;29;20052;-71
2022/04/23 02:03:41;;;;;;;22.25;10.00;;;8.30;81.10;;;;;;4919202;29;20048;-71
2022/04/23 02:06:08;;;;;;;28.88;10.48;;;8.30;81.20;;;;;;4936268;29;20502;-71
2022/04/23 02:08:36;;;;;;;26.85;11.20;;;8.20;81.20;;;;;;4903801;29;20509;-71
2022/04/23 02:11:04;;;;;;;24.33;10.93;;;8.20;81.40;;;;;;4917324;29;20059;-71
2022/04/23 02:13:31;;;;;;;22.25;10.32;;;8.20;81.50;;;;;;4936500;29;20059;-71
2022/04/23 02:15:59;;;;;;;26.90;10.82;;;8.20;81.50;;;;;;4936492;29;20055;-71
2022/04/23 02:18:28;;;;;;;19.00;9.23;;;8.10;81.80;;;;;;4936257;29;20409;-71
2022/04/23 02:20:55;;;;;;;28.88;10.43;;;8.10;81.90;;;;;;4936364;29;20051;-71
2022/04/23 02:23:23;;;;;;;25.80;11.38;;;8.10;82.10;;;;;;4919129;29;20409;-71
2022/04/23 02:28:16;;;;;;;24.45;10.75;;;8.20;82.10;;;;;;5006229;23;20066;-71
2022/04/23 02:30:44;;;;;;;26.35;11.02;;;8.20;82.20;;;;;;4955315;29;20047;-71
2022/04/23 02:33:14;;;;;;;21.80;11.35;;;8.20;82.20;;;;;;4955116;29;20043;-71
2022/04/23 02:35:41;;;;;;;30.92;11.23;;;8.30;82.10;;;;;;4955064;29;20360;-71
2022/04/23 02:38:09;;;;;;;30.33;11.30;;;8.30;82.00;;;;;;4954049;29;20050;-71
2022/04/23 02:40:38;;;;;;;28.40;11.73;;;8.20;82.10;;;;;;4955047;29;20059;-72
2022/04/23 02:43:07;;;;;;;30.30;10.95;;;8.20;82.20;;;;;;4955006;29;20043;-71
2022/04/23 02:45:36;;;;;;;36.55;12.65;;;8.20;82.30;;;;;;4953882;29;20066;-71
2022/04/23 02:48:04;;;;;;;26.92;11.18;;;8.20;82.40;;;;;;4955100;29;20047;-71
2022/04/23 02:50:37;;;;;;;34.60;12.27;;;8.30;82.30;;;;;;4955006;29;20058;-71
2022/04/23 02:53:08;;;;;;;24.40;11.70;;;8.30;82.20;;;;;;4954897;29;20047;-71
2022/04/23 02:55:37;;;;;;;26.90;11.52;;;8.30;82.20;;;;;;4954410;29;20392;-71
2022/04/23 02:58:09;;;;;;;26.15;11.35;;;8.30;82.30;;;;;;4954916;29;20048;-71
2022/04/23 03:00:40;;;;;;;26.85;10.98;;;8.40;82.30;;;;;;4954910;29;20047;-71
2022/04/23 03:03:09;;;;;;;29.25;11.32;;;8.40;82.30;;;;;;4954818;29;20047;-71
2022/04/23 03:05:42;;;;;;;26.85;11.43;;;8.50;82.20;;;;;;4954621;29;20058;-71
2022/04/23 03:08:12;;;;;;;28.23;10.88;;;8.60;82.10;;;;;;4954552;29;20047;-71
2022/04/23 03:10:40;;;;;;;30.67;11.57;;;8.60;82.00;;;;;;4954444;29;20061;-71
2022/04/23 03:13:08;;;;;;;30.10;11.55;;;8.60;82.00;;;;;;4954601;29;20039;-71
2022/04/23 03:15:37;;;;;;;26.77;11.00;;;8.60;82.00;;;;;;4937319;29;20401;-71
2022/04/23 03:18:07;;;;;;;30.05;11.18;;;8.60;81.90;;;;;;4954329;29;20054;-71
2022/04/23 03:20:37;;;;;;;34.13;11.30;;;8.50;82.00;;;;;;4953895;28;20436;-71
2022/04/23 03:23:05;;;;;;;26.75;11.35;;;8.50;82.10;;;;;;4954247;29;20507;-71
2022/04/23 03:25:33;;;;;;;30.40;10.73;;;8.50;82.10;;;;;;4954082;29;20051;-71
2022/04/23 03:28:01;;;;;;;25.10;10.30;;;8.50;82.30;;;;;;4959961;28;20061;-71
2022/04/23 03:30:30;;;;;;;29.92;10.32;;;8.50;82.40;;;;;;4960381;28;20051;-71
2022/04/23 03:32:59;;;;;;;30.48;10.77;;;8.40;82.30;;;;;;4954177;29;20054;-71
2022/04/23 03:35:27;;;;;;;25.00;10.60;;;8.40;82.30;;;;;;4952529;29;20043;-72
2022/04/23 03:37:58;;;;;;;25.25;10.88;;;8.30;82.20;;;;;;4953877;29;20051;-71
2022/04/23 03:40:26;;;;;;;22.98;10.15;;;8.30;82.30;;;;;;4936888;29;20397;-71
2022/04/23 03:42:53;;;;;;;26.10;10.68;;;8.20;82.40;;;;;;4952884;29;20047;-71
2022/04/23 03:45:22;;;;;;;23.33;10.68;;;8.20;82.60;;;;;;4952750;29;20055;-71
2022/04/23 03:47:50;;;;;;;24.45;10.60;;;8.10;82.70;;;;;;4954309;29;20054;-71
2022/04/23 03:50:18;;;;;;;29.25;10.68;;;8.10;82.70;;;;;;4954108;29;20051;-71
2022/04/23 03:52:46;;;;;;;26.98;10.55;;;8.00;82.80;;;;;;4958389;28;20402;-72
2022/04/23 03:55:13;;;;;;;25.63;11.07;;;8.00;83.00;;;;;;4955593;28;20046;-71
2022/04/23 03:57:51;;;;;;;22.20;10.55;;;8.10;83.00;;;;;;4972987;28;20051;-71
2022/04/23 04:00:21;;;;;;;23.17;11.30;;;8.10;83.20;;;;;;4955763;28;20057;-71
2022/04/23 04:02:54;;;;;;;30.45;11.07;;;8.20;83.10;;;;;;4973159;28;20468;-71
2022/04/23 04:05:24;;;;;;;32.42;10.38;;;8.30;83.00;;;;;;4973158;28;20051;-71
2022/04/23 04:07:52;;;;;;;24.52;9.77;;;8.30;82.90;;;;;;4972992;28;20051;-71
2022/04/23 04:10:22;;;;;;;25.42;10.35;;;8.40;82.70;;;;;;4973137;28;20500;-71
2022/04/23 04:12:52;;;;;;;23.30;10.73;;;8.40;82.60;;;;;;4973212;28;20087;-71
2022/04/23 04:15:20;;;;;;;23.95;8.98;;;8.50;82.60;;;;;;4973153;28;20042;-71
2022/04/23 04:17:53;;;;;;;24.13;9.77;;;8.50;82.50;;;;;;4973000;28;20053;-71
2022/04/23 04:20:21;;;;;;;24.42;10.32;;;8.60;82.40;;;;;;4955903;28;20046;-71
2022/04/23 04:22:50;;;;;;;28.67;10.50;;;8.60;82.30;;;;;;4955569;28;20495;-71
2022/04/23 04:25:17;;;;;;;21.60;9.40;;;8.60;82.30;;;;;;4972250;28;20413;-71
2022/04/23 04:27:45;;;;;;;31.15;10.23;;;8.70;82.20;;;;;;4972329;28;20050;-71
2022/04/23 04:30:13;;;;;;;27.83;10.50;;;8.70;82.20;;;;;;4972961;28;20053;-71
2022/04/23 04:32:41;;;;;;;31.88;10.48;;;8.70;82.10;;;;;;4972942;28;20055;-71
2022/04/23 04:35:10;;;;;;;28.70;10.05;;;8.70;82.10;;;;;;4955895;28;20519;-71
2022/04/23 04:37:39;;;;;;;22.90;10.10;;;8.60;82.20;;;;;;4939888;28;20054;-71
2022/04/23 04:40:07;;;;;;;30.38;10.55;;;8.70;82.30;;;;;;4971715;28;20065;-71
2022/04/23 04:42:35;;;;;;;27.88;9.38;;;8.70;82.40;;;;;;4972837;28;20054;-71
2022/04/23 04:45:04;;;;;;;20.02;9.07;;;8.70;82.30;;;;;;4940766;29;20047;-71
2022/04/23 04:47:31;;;;;;;30.90;10.32;;;8.80;82.30;;;;;;4936545;29;20047;-71
2022/04/23 04:49:59;;;;;;;26.55;10.02;;;8.80;82.20;;;;;;4954359;28;20047;-71
2022/04/23 04:52:27;;;;;;;26.48;9.85;;;8.80;82.20;;;;;;4957019;29;20521;-71
2022/04/23 04:54:57;;;;;;;27.55;10.70;;;8.80;82.10;;;;;;4957006;29;20075;-71
2022/04/23 04:57:24;;;;;;;22.02;10.45;;;8.80;82.10;;;;;;4957076;29;20051;-71
2022/04/23 04:59:52;;;;;;;31.95;10.25;;;8.80;82.10;;;;;;4956890;29;20055;-71
2022/04/23 05:02:20;;;;;;;22.98;10.13;;;8.80;82.30;;;;;;4923967;29;20516;-73
2022/04/23 05:04:48;;;;;;;26.77;9.38;;;8.80;82.40;;;;;;4956883;29;20306;-72
2022/04/23 05:07:15;;;;;;;31.50;11.02;;;8.80;82.40;;;;;;4956691;29;20054;-72
2022/04/23 05:09:43;;;;;;;24.88;10.13;;;8.80;82.30;;;;;;4955640;29;20393;-71
2022/04/23 05:12:11;;;;;;;28.77;10.40;;;8.80;82.20;;;;;;4956801;29;20400;-71
2022/04/23 05:14:38;;;;;;;23.30;9.50;;;8.80;82.20;;;;;;4956813;29;20055;-72
2022/04/23 05:17:11;;;;;;;23.65;10.43;;;8.80;82.20;;;;;;4956764;29;20048;-73
2022/04/23 05:19:39;;;;;;;29.13;9.93;;;8.80;82.30;;;;;;4923796;29;20047;-71
2022/04/23 05:22:06;;;;;;;30.50;10.13;;;8.80;82.30;;;;;;4939197;29;20055;-71
2022/04/23 05:24:34;;;;;;;23.92;10.05;;;8.90;82.20;;;;;;4956413;29;20072;-71
2022/04/23 05:27:02;;;;;;;25.42;10.32;;;8.90;82.20;;;;;;4939158;29;20051;-71
2022/04/23 05:29:29;;;;;;;36.40;10.50;;;9.00;82.10;;;;;;4955793;29;20059;-72
2022/04/23 05:31:57;;;;;;;26.40;8.60;;;9.00;82.00;;;;;;4956354;29;20485;-72
2022/04/23 05:34:28;;;;;;;19.75;9.02;;;9.00;81.90;;;;;;4939226;29;20513;-72
2022/04/23 05:36:56;;;;;;;21.63;9.32;;;9.00;81.80;;;;;;4956106;29;20064;-72
2022/04/23 05:39:23;;;;;;;22.75;9.27;;;9.10;81.60;;;;;;4956292;29;20051;-72
2022/04/23 05:41:51;;;;;;;29.85;9.60;;;9.10;81.50;;;;;;4939005;29;20409;-72
2022/04/23 05:44:18;;;;;;;24.52;9.25;;;9.10;81.50;;;;;;4956426;29;20051;-72
2022/04/23 05:46:46;;;;;;;20.33;9.18;;;9.00;81.50;;;;;;4956386;29;20505;-72
2022/04/23 05:49:13;;;;;;;21.38;9.05;;;9.00;81.50;;;;;;4956055;29;20047;-72
2022/04/23 05:52:01;;;;;;;23.92;10.00;;;9.00;81.50;;;;;;4956184;29;20042;-72
2022/04/23 05:54:29;;;;;;;25.38;9.45;;;9.00;81.50;;;;;;4938830;29;20408;-72
2022/04/23 05:56:56;;;;;;;26.25;9.75;;;9.00;81.50;;;;;;4954808;29;20432;-72
2022/04/23 05:59:26;;;;;;;20.40;9.07;;;9.00;81.40;;;;;;4938745;29;20066;-72
2022/04/23 06:01:53;;;;;;;28.23;10.07;;;9.00;81.50;;;;;;4955943;28;20051;-72
2022/04/23 06:04:22;;;;;;;24.20;10.50;;;9.00;81.40;;;;;;4955803;29;20381;-72
2022/04/23 06:06:50;;;;;;;29.48;9.85;;;9.10;81.30;;;;;;4938408;29;20244;-72
2022/04/23 06:09:17;;;;;;;24.20;10.38;;;9.10;81.30;;;;;;4922708;29;20051;-72
2022/04/23 06:11:45;;;;;;;24.30;9.15;;;9.20;81.20;;;;;;4955832;29;20055;-72
2022/04/23 06:14:12;;;;;;;26.65;9.65;;;9.30;81.10;;;;;;4955663;29;20054;-71
2022/04/23 06:16:40;;;;;;;27.88;10.15;;;9.30;80.90;;;;;;4955708;29;20051;-71
2022/04/23 06:19:08;;;;;;;22.23;8.55;;;9.40;80.70;;;;;;4955435;29;20377;-71
2022/04/23 06:21:35;;;;;;;23.10;8.40;;;9.50;80.50;;;;;;4938581;29;20070;-70
2022/04/23 06:24:03;;;;;;;22.13;8.70;;;9.50;80.30;;;;;;4938204;29;20055;-70
2022/04/23 06:26:32;;;;;;;17.48;8.20;;;9.50;80.20;;;;;;4954112;29;20518;-71
2022/04/23 06:28:59;;;;;;;23.25;8.82;;;9.40;80.20;;;;;;4955155;29;20051;-70
2022/04/23 06:31:27;;;;;;;22.15;8.30;;;9.40;80.20;;;;;;4955322;29;20481;-70
2022/04/23 06:33:55;;;;;;;26.67;9.43;;;9.40;80.20;;;;;;4955117;29;20507;-72
2022/04/23 06:36:22;;;;;;;24.67;9.38;;;9.40;80.20;;;;;;4955056;29;20515;-71
2022/04/23 06:38:50;;;;;;;22.70;9.10;;;9.40;80.20;;;;;;4937825;29;20058;-72
2022/04/23 06:41:21;;;;;;;20.17;9.10;;;9.40;80.20;;;;;;4938613;29;20058;-71
2022/04/23 06:43:48;;;;;;;18.80;7.53;;;9.40;80.30;;;;;;4938223;29;20070;-71
2022/04/23 06:46:16;;;;;;;24.88;9.60;;;9.40;80.40;;;;;;4953889;29;20399;-71
2022/04/23 06:48:44;;;;;;;22.33;9.00;;;9.40;80.40;;;;;;4954612;29;20062;-71
2022/04/23 06:51:11;;;;;;;24.38;8.90;;;9.50;80.40;;;;;;4954632;29;20051;-71
2022/04/23 06:53:39;;;;;;;18.45;8.65;;;9.40;80.40;;;;;;4955225;29;20075;-71
2022/04/23 06:56:07;;;;;;;20.92;7.93;;;9.50;80.30;;;;;;4955090;29;20043;-71
2022/04/23 06:58:35;;;;;;;19.30;9.35;;;9.60;80.20;;;;;;4955089;29;20048;-71
2022/04/23 07:01:03;;;;;;;28.33;9.38;;;9.70;80.10;;;;;;4954988;29;20504;-72
2022/04/23 07:03:31;;;;;;;22.73;9.07;;;9.70;80.00;;;;;;4937647;29;20055;-71
2022/04/23 07:05:59;;;;;;;23.88;9.25;;;9.80;79.80;;;;;;4954805;29;20488;-71
2022/04/23 07:08:30;;;;;;;28.30;9.52;;;9.80;79.70;;;;;;4938341;29;20374;-71
2022/04/23 07:10:58;;;;;;;16.77;8.55;;;9.80;79.60;;;;;;4954789;29;20051;-71
2022/04/23 07:13:25;;;;;;;23.63;8.85;;;9.90;79.40;;;;;;4954328;28;20488;-72
2022/04/23 07:15:53;;;;;;;18.50;8.85;;;9.90;79.30;;;;;;4954585;29;20047;-71
2022/04/23 07:18:20;;;;;;;20.50;8.48;;;10.00;79.10;;;;;;4953409;29;20047;-71
2022/04/23 07:20:48;;;;;;;18.92;8.43;;;10.10;79.00;;;;;;4954689;29;20370;-71
2022/04/23 07:26:02;;;;;;;19.77;8.40;;;10.20;78.60;;;;;;4954497;29;20382;-72
2022/04/23 07:28:30;;;;;;;22.02;8.90;;;10.30;78.50;;;;;;4953166;29;20055;-71
2022/04/23 07:30:57;;;;;;;19.48;8.77;;;10.30;78.20;;;;;;4936988;29;20054;-71
2022/04/23 07:38:57;;;;;;;28.98;9.27;;;10.50;77.70;;;;;;4937036;29;20485;-72
2022/04/23 07:41:27;;;;;;;24.02;8.52;;;10.50;77.60;;;;;;4953125;29;20175;-72
2022/04/23 07:43:56;;;;;;;16.90;8.25;;;10.60;77.50;;;;;;4954260;29;20043;-72
2022/04/23 07:46:24;;;;;;;18.73;7.80;;;10.60;77.50;;;;;;4936676;29;20054;-72
2022/04/23 07:48:52;;;;;;;25.10;9.52;;;10.60;77.30;;;;;;4954239;29;20043;-72
2022/04/23 07:51:20;;;;;;;18.02;7.40;;;10.50;77.30;;;;;;4954340;29;20054;-72
2022/04/23 07:53:48;;;;;;;21.88;8.55;;;10.50;77.20;;;;;;4936980;29;20386;-72
2022/04/23 07:56:16;;;;;;;21.45;8.68;;;10.40;77.30;;;;;;4954202;29;20047;-72
2022/04/23 07:58:44;;;;;;;24.80;9.02;;;10.30;77.50;;;;;;4954284;29;20408;-72
2022/04/23 08:01:12;;;;;;;23.23;7.63;;;10.30;77.60;;;;;;4954141;29;20110;-72
2022/04/23 08:03:41;;;;;;;19.58;8.15;;;10.30;77.80;;;;;;4937018;29;20055;-72
2022/04/23 08:06:10;;;;;;;23.75;7.82;;;10.30;77.80;;;;;;4953991;29;20535;-72
2022/04/23 08:08:37;;;;;;;28.98;8.20;;;10.30;77.70;;;;;;4953063;29;20051;-71
2022/04/23 08:11:06;;;;;;;24.83;8.77;;;10.40;77.70;;;;;;4954207;29;20053;-72
2022/04/23 08:13:34;;;;;;;16.15;7.05;;;10.40;77.70;;;;;;4953400;29;20062;-72
2022/04/23 08:16:02;;;;;;;20.33;7.70;;;10.40;77.60;;;;;;4937059;29;20043;-72
2022/04/23 08:18:30;;;;;;;19.30;7.40;;;10.40;77.60;;;;;;4954274;29;20047;-71
2022/04/23 08:20:58;;;;;;;20.15;8.20;;;10.40;77.60;;;;;;4936856;29;20047;-71
2022/04/23 08:23:25;;;;;;;19.42;7.38;;;10.40;77.60;;;;;;4954001;29;20073;-71
2022/04/23 08:25:56;;;;;;;22.55;7.82;;;10.40;77.70;;;;;;4956221;28;20050;-71
2022/04/23 08:31:11;;;;;;;17.33;7.07;;;10.60;77.50;;;;;;4957512;29;20488;-71
2022/04/23 08:36:30;;;;;;;23.30;7.47;;;10.70;77.10;;;;;;4940804;29;20054;-75
2022/04/23 08:38:59;;;;;;;24.35;7.82;;;10.80;77.00;;;;;;4940379;29;20051;-71
2022/04/23 08:41:31;;;;;;;20.95;7.60;;;10.80;76.80;;;;;;4924534;29;20055;-71
2022/04/23 08:44:06;;;;;;;23.40;8.05;;;10.90;76.80;;;;;;4956883;29;20059;-71
2022/04/23 08:46:38;;;;;;;23.65;7.85;;;11.00;76.40;;;;;;4957266;29;20545;-72
2022/04/23 08:49:13;;;;;;;18.23;7.03;;;11.00;76.30;;;;;;4957470;29;20055;-71
2022/04/23 08:51:45;;;;;;;23.63;7.35;;;11.10;76.20;;;;;;4957495;29;20480;-71
2022/04/23 08:54:14;;;;;;;22.90;7.63;;;11.10;76.00;;;;;;4957452;29;20055;-71
2022/04/23 08:56:43;;;;;;;18.35;8.48;;;11.20;76.00;;;;;;4956115;29;20043;-71
2022/04/23 08:59:13;;;;;;;25.05;7.65;;;11.10;76.00;;;;;;4957067;29;20370;-71
2022/04/23 09:01:47;;;;;;;16.92;6.90;;;11.10;76.00;;;;;;4957301;29;20062;-71
2022/04/23 09:04:15;;;;;;;28.83;7.65;;;11.20;76.00;;;;;;4940021;29;20043;-71
2022/04/23 09:06:47;;;;;;;24.13;8.18;;;11.20;76.00;;;;;;4924349;29;20409;-71
2022/04/23 09:09:20;;;;;;;18.60;7.65;;;11.30;75.70;;;;;;4957151;29;20074;-70
2022/04/23 09:11:52;;;;;;;;;;;11.40;75.70;;;;;;4940326;29;20047;-71
2022/04/23 09:14:27;;;;;;;20.90;7.93;;;11.60;75.70;;;;;;4939861;29;19922;-70
2022/04/23 09:25:37;;;;;;;26.25;8.20;;;12.70;72.70;;;;;;4956908;29;20054;-72
2022/04/23 09:28:22;;;;;;;18.35;6.97;;;12.90;72.10;;;;;;4939422;29;20047;-71
2022/04/23 09:30:52;;;;;;;17.40;6.85;;;13.10;71.80;;;;;;4956836;29;20047;-72
2022/04/23 09:33:27;;;;;;;21.58;7.20;;;13.20;70.90;;;;;;4956734;29;20088;-72
2022/04/23 09:36:02;;;;;;;17.27;6.35;;;13.20;70.60;;;;;;4938807;29;20055;-72
2022/04/23 09:38:31;;;;;;;19.83;7.50;;;13.20;70.20;;;;;;4955605;29;20047;-71
2022/04/23 09:41:23;;;;;;;16.10;7.15;;;13.10;70.20;;;;;;4955720;29;20060;-71
2022/04/23 09:44:06;;;;;;;16.17;7.65;;;13.00;70.40;;;;;;4939346;29;20051;-72
2022/04/23 09:46:48;;;;;;;18.88;8.15;;;12.80;70.60;;;;;;4939535;29;20043;-72
2022/04/23 09:49:32;;;;;;;14.15;7.82;;;12.80;70.90;;;;;;4955738;29;20514;-72
2022/04/23 09:52:03;;;;;;;19.20;7.40;;;12.80;71.00;;;;;;4956262;29;20058;-72
2022/04/23 09:54:32;;;;;;;22.48;7.88;;;12.80;71.20;;;;;;4956247;29;20070;-72
2022/04/23 09:57:00;;;;;;;18.95;8.20;;;13.00;71.20;;;;;;4907645;29;20043;-72
2022/04/23 09:59:28;;;;;;;20.70;7.40;;;13.10;71.10;;;;;;4939352;29;20416;-72
2022/04/23 10:01:57;;;;;;;19.98;8.30;;;13.30;70.50;;;;;;4956163;29;20408;-72
2022/04/23 10:04:27;;;;;;;19.65;7.50;;;13.30;70.10;;;;;;4955421;29;20050;-72
2022/04/23 10:06:56;;;;;;;16.55;8.15;;;13.40;69.80;;;;;;4954934;29;20043;-72
2022/04/23 10:09:30;;;;;;;21.70;8.30;;;13.50;69.50;;;;;;4923150;29;20054;-72
2022/04/23 10:12:08;;;;;;;22.20;9.02;;;13.50;68.80;;;;;;4938758;29;20055;-72
2022/04/23 10:14:41;;;;;;;21.38;8.10;;;13.50;69.00;;;;;;4956026;29;20047;-72
2022/04/23 10:17:12;;;;;;;16.23;8.20;;;13.40;68.90;;;;;;4955208;29;20547;-72
2022/04/23 10:19:41;;;;;;;14.98;8.32;;;13.30;69.10;;;;;;4938852;29;20054;-72
2022/04/23 10:22:37;;;;;;;19.48;9.85;;;13.30;69.30;;;;;;4938691;29;20440;-72
2022/04/23 10:25:22;;;;;;;25.08;9.70;;;13.10;69.50;;;;;;4955684;29;20401;-72
2022/04/23 10:27:55;;;;;;;23.63;10.82;;;13.00;69.90;;;;;;4955004;29;20043;-77
2022/04/23 10:30:25;;;;;;;;;;;12.80;70.40;;;;;;4948544;29;20062;-72
2022/04/23 10:32:53;;;;;;;24.15;11.35;;;12.70;70.50;;;;;;4939728;29;19929;-71
2022/04/23 10:35:20;;;;;;;23.42;11.43;;;12.50;70.90;;;;;;4935182;29;20048;-72
2022/04/23 10:37:54;;;;;;;29.35;11.52;;;12.40;71.30;;;;;;4936366;29;20520;-71
2022/04/23 10:40:22;;;;;;;27.65;12.85;;;12.40;71.60;;;;;;4935802;29;20055;-72
2022/04/23 10:43:13;;;;;;;22.38;12.40;;;12.30;71.80;;;;;;4917971;29;20047;-71
2022/04/23 10:45:40;;;;;;;24.85;13.15;;;12.30;72.00;;;;;;4936195;29;20052;-72
2022/04/23 10:48:23;;;;;;;28.95;13.95;;;12.30;72.10;;;;;;4935048;29;20040;-72
2022/04/23 10:51:19;;;;;;;27.45;12.90;;;12.30;72.20;;;;;;4919234;29;20408;-72
2022/04/23 10:53:47;;;;;;;29.35;14.25;;;12.50;72.10;;;;;;4935894;29;20389;-72
2022/04/23 10:56:16;;;;;;;28.23;14.93;;;12.60;72.00;;;;;;4919052;29;20047;-72
2022/04/23 10:58:44;;;;;;;27.25;14.50;;;12.60;71.90;;;;;;4934658;29;20064;-72
2022/04/23 11:01:20;;;;;;;31.73;15.40;;;12.60;71.70;;;;;;4935931;29;20047;-72
2022/04/23 11:03:55;;;;;;;27.10;14.07;;;12.70;71.50;;;;;;4936272;29;20059;-72
2022/04/23 11:12:23;;;;;;;27.13;14.15;;;12.90;71.20;;;;;;4903041;29;20051;-72
2022/04/23 11:14:56;;;;;;;30.17;15.52;;;13.00;70.70;;;;;;4918921;29;20044;-72
2022/04/23 11:17:40;;;;;;;28.08;15.10;;;13.10;70.60;;;;;;4918793;29;20501;-72
2022/04/23 11:20:10;;;;;;;29.17;14.30;;;13.30;70.50;;;;;;4935195;29;20505;-72
2022/04/23 11:22:38;;;;;;;31.95;14.43;;;13.60;70.10;;;;;;4918422;29;20413;-72
2022/04/23 11:25:06;;;;;;;23.27;13.98;;;13.80;68.50;;;;;;4934143;29;20497;-72
2022/04/23 11:27:37;;;;;;;31.52;14.75;;;14.00;68.00;;;;;;4934713;29;20437;-72
2022/04/23 11:30:06;;;;;;;24.58;14.38;;;14.20;67.70;;;;;;4918193;29;20055;-72
2022/04/23 11:32:36;;;;;;;32.72;14.77;;;14.30;67.10;;;;;;4918090;29;20058;-72
2022/04/23 11:35:05;;;;;;;25.67;13.75;;;14.50;66.20;;;;;;4935311;29;20071;-72
2022/04/23 11:37:37;;;;;;;20.52;13.55;;;14.50;65.70;;;;;;4935173;29;20055;-71
2022/04/23 11:40:08;;;;;;;23.58;12.80;;;14.50;65.40;;;;;;4934804;29;20052;-72
2022/04/23 11:42:37;;;;;;;22.35;12.90;;;14.60;65.40;;;;;;4935096;29;20051;-71
2022/04/23 11:45:05;;;;;;;29.13;12.98;;;14.70;65.00;;;;;;4935024;29;20412;-71
2022/04/23 11:47:33;;;;;;;23.50;12.93;;;14.90;64.00;;;;;;4935103;29;20058;-70
2022/04/23 11:50:14;;;;;;;24.45;12.45;;;15.00;63.50;;;;;;4918213;29;20408;-71
2022/04/23 11:52:55;;;;;;;21.73;13.00;;;14.90;63.20;;;;;;4935044;29;20048;-72
2022/04/23 11:55:28;;;;;;;23.02;12.27;;;14.90;63.40;;;;;;4935250;29;20048;-71
2022/04/23 11:58:05;;;;;;;20.58;12.45;;;15.00;63.30;;;;;;4935175;29;20404;-72
2022/04/23 12:00:33;;;;;;;23.45;13.10;;;15.00;62.50;;;;;;4935042;29;20382;-71
2022/04/23 12:03:02;;;;;;;26.40;12.55;;;15.00;62.20;;;;;;4935018;29;20047;-72
2022/04/23 12:05:34;;;;;;;26.08;12.90;;;15.10;62.20;;;;;;4935087;29;20048;-72
2022/04/23 12:08:05;;;;;;;25.67;12.30;;;15.10;62.20;;;;;;4934469;29;20048;-72
2022/04/23 12:10:33;;;;;;;19.40;12.30;;;15.10;61.70;;;;;;4951689;29;20048;-72
2022/04/23 12:13:06;;;;;;;23.50;11.35;;;15.00;61.40;;;;;;4953590;29;20074;-71
2022/04/23 12:15:36;;;;;;;21.70;10.88;;;15.00;61.60;;;;;;4953914;29;20047;-71
2022/04/23 12:18:14;;;;;;;18.38;11.27;;;15.10;62.00;;;;;;4954049;29;20055;-74
2022/04/23 12:20:42;;;;;;;23.98;10.48;;;15.20;61.90;;;;;;4937149;29;20039;-73
2022/04/23 12:23:10;;;;;;;21.45;10.27;;;15.20;61.50;;;;;;4953144;29;20047;-73
2022/04/23 12:25:38;;;;;;;16.77;10.05;;;15.10;61.60;;;;;;4936133;29;20056;-74
2022/04/23 12:42:13;;;;;;;17.63;8.35;;;15.30;60.60;;;;;;4925290;29;20050;-72
2022/04/23 12:44:45;;;;;;;16.10;9.50;;;15.30;60.10;;;;;;4922941;29;20055;-72
2022/04/23 12:47:17;;;;;;;19.10;9.32;;;15.30;60.40;;;;;;4934679;29;20063;-72
2022/04/23 12:49:54;;;;;;;16.38;8.45;;;15.20;60.70;;;;;;4934708;29;20394;-72
2022/04/23 12:52:24;;;;;;;16.20;8.15;;;15.10;60.70;;;;;;4917646;29;20048;-76
2022/04/23 12:55:14;;;;;;;16.15;8.60;;;15.20;60.60;;;;;;4917835;29;20047;-72
2022/04/23 12:57:45;;;;;;;18.85;8.68;;;15.20;60.40;;;;;;4934026;29;20052;-72
2022/04/23 13:00:16;;;;;;;16.63;7.57;;;15.20;60.10;;;;;;4934502;29;20040;-72
2022/04/23 13:02:48;;;;;;;12.55;6.78;;;15.10;59.60;;;;;;4933453;29;20058;-72
2022/04/23 13:05:16;;;;;;;14.95;7.57;;;15.00;59.00;;;;;;4934216;29;20055;-72
2022/04/23 13:10:30;;;;;;;12.68;6.70;;;14.80;58.30;;;;;;4934117;29;20070;-72
2022/04/23 13:12:59;;;;;;;13.73;6.90;;;14.90;58.00;;;;;;4920343;29;20051;-71
2022/04/23 13:15:27;;;;;;;13.38;6.15;;;14.90;57.70;;;;;;4937220;29;20441;-72
2022/04/23 13:17:55;;;;;;;16.33;6.75;;;15.20;57.30;;;;;;4920401;29;20409;-73
2022/04/23 13:20:23;;;;;;;10.05;6.57;;;15.40;55.60;;;;;;4920149;29;20378;-74
2022/04/23 13:22:50;;;;;;;15.27;6.65;;;15.70;55.20;;;;;;4937615;29;20048;-72
2022/04/23 13:25:22;;;;;;;13.70;6.45;;;16.20;54.30;;;;;;4920354;29;20047;-73
2022/04/23 13:27:50;;;;;;;10.95;6.18;;;16.80;53.60;;;;;;4919968;29;20211;-72
2022/04/23 13:30:18;;;;;;;9.02;5.25;;;17.70;52.10;;;;;;4936838;29;20055;-73
2022/04/23 13:32:46;;;;;;;13.73;5.30;;;18.30;49.30;;;;;;4936900;29;20051;-73
2022/04/23 13:35:15;;;;;;;10.98;5.82;;;18.90;47.60;;;;;;4936812;29;20071;-73
2022/04/23 13:37:44;;;;;;;9.55;5.80;;;19.10;46.00;;;;;;4936992;29;20524;-73